»·PEaware :: N55NT KPDX-KMFR

N55NT :: KPDX-KMFR

FLIGHT INFORMATION

Flight Status: Arrived
Operator: Privately registered:
United States
More flights under this callsign
Pilot: Craig H. (6968)
Aircraft: SOCATA TBM-900
(TBM9)
More flights by this aircraft type
Origin: KPDX Portland Intl
United States
Destination: KMFR Rogue Valley Intl-Medford
United States
More flights between these airports :: More routes between these airports
Route: +PTLD1 EUG OED
File this flight plan on PilotEdge
Remarks:
Altitude:
(Current/Filed)
25,000ft
Speed:
(Current/Filed)
300kts
Departed: 23-Dec-19 09:31 AM
Arrived: 23-Dec-19 10:24 AM
Distance/Time
Traveled:
193nm/0:52
Distance/Time
To Go:
Arrived

Flight Plot

Page will automatically refresh every two minutes.

Flight plan parsing failed; only flown route is shown


Map Options




Map Legend


Flown Route
Filed Route
Departure Airport
Arrival Airport
Navaid (VOR, NDB)
Fix

Horizontal Profiles

Position Reports

Time Latitude Longitude Heading Altitude Ground
Speed
23-Dec-19 09:14 45.586674 -122.582763 117 25ft 0kts
23-Dec-19 09:15 45.586674 -122.582763 117 25ft 0kts
23-Dec-19 09:16 45.586674 -122.582763 117 25ft 0kts
23-Dec-19 09:17 45.586674 -122.582763 117 25ft 0kts
23-Dec-19 09:18 45.586674 -122.582763 117 25ft 0kts
23-Dec-19 09:19 45.586674 -122.582763 117 25ft 0kts
23-Dec-19 09:20 45.586674 -122.582763 117 25ft 0kts
23-Dec-19 09:21 45.586674 -122.582763 117 25ft 0kts
23-Dec-19 09:22 45.586674 -122.582763 117 25ft 0kts
23-Dec-19 09:23 45.586673 -122.582763 117 25ft 0kts
23-Dec-19 09:24 45.586612 -122.582502 84 25ft 5kts
23-Dec-19 09:25 45.587478 -122.582437 294 25ft 11kts
23-Dec-19 09:26 45.589757 -122.585917 299 25ft 16kts
23-Dec-19 09:27 45.592180 -122.592144 299 25ft 19kts
23-Dec-19 09:28 45.594113 -122.597172 307 25ft 6kts
23-Dec-19 09:29 45.594896 -122.595841 121 25ft 0kts
23-Dec-19 09:30 45.579889 -122.556430 117 1171ft 142kts
23-Dec-19 09:31 45.560732 -122.504485 118 3614ft 151kts
23-Dec-19 09:32 45.555696 -122.442862 94 5934ft 164kts
23-Dec-19 09:33 45.551720 -122.376493 94 8355ft 173kts
23-Dec-19 09:34 45.547066 -122.307428 95 10878ft 172kts
23-Dec-19 09:35 45.541589 -122.241409 95 13520ft 169kts
23-Dec-19 09:36 45.535126 -122.169159 94 15046ft 221kts
23-Dec-19 09:37 45.492819 -122.115577 206 15207ft 249kts
23-Dec-19 09:38 45.441094 -122.154895 213 18028ft 190kts
23-Dec-19 09:39 45.394879 -122.193068 214 20407ft 199kts
23-Dec-19 09:40 45.345770 -122.233713 215 22726ft 211kts
23-Dec-19 09:41 45.293897 -122.276616 215 24999ft 221kts
23-Dec-19 09:42 45.232237 -122.327486 213 25123ft 284kts
23-Dec-19 09:43 45.160562 -122.386409 213 25100ft 307kts
23-Dec-19 09:44 45.085664 -122.447860 214 25114ft 312kts
23-Dec-19 09:45 45.010162 -122.509610 214 25109ft 313kts
23-Dec-19 09:46 44.934497 -122.571291 214 25107ft 314kts
23-Dec-19 09:47 44.858762 -122.632823 214 25104ft 313kts
23-Dec-19 09:48 44.783043 -122.694194 213 25107ft 313kts
23-Dec-19 09:49 44.707571 -122.755155 213 25107ft 312kts
23-Dec-19 09:50 44.632306 -122.815770 213 25112ft 311kts
23-Dec-19 09:51 44.557033 -122.876209 213 25118ft 310kts
23-Dec-19 09:52 44.481927 -122.936324 213 25128ft 310kts
23-Dec-19 09:53 44.407069 -122.996080 213 25129ft 310kts
23-Dec-19 09:54 44.331891 -123.055868 213 25122ft 311kts
23-Dec-19 09:55 44.256760 -123.115481 213 25123ft 310kts
23-Dec-19 09:56 44.181575 -123.174979 213 25124ft 311kts
23-Dec-19 09:57 44.102464 -123.219036 175 25134ft 318kts
23-Dec-19 09:58 44.013916 -123.202115 174 25120ft 320kts
23-Dec-19 09:59 43.926145 -123.185157 174 25120ft 316kts
23-Dec-19 10:00 43.839269 -123.168449 173 25113ft 315kts
23-Dec-19 10:01 43.752724 -123.151828 174 25118ft 313kts
23-Dec-19 10:02 43.666481 -123.135328 174 25116ft 313kts
23-Dec-19 10:03 43.580014 -123.118828 174 25116ft 313kts
23-Dec-19 10:04 43.493416 -123.102350 174 25052ft 315kts
23-Dec-19 10:05 43.408951 -123.086298 174 23512ft 289kts
23-Dec-19 10:06 43.332108 -123.071781 174 21977ft 271kts
23-Dec-19 10:07 43.258488 -123.057886 174 20470ft 264kts
23-Dec-19 10:08 43.186254 -123.044292 174 18967ft 260kts
23-Dec-19 10:09 43.115019 -123.030911 174 17205ft 256kts
23-Dec-19 10:10 43.044709 -123.017736 173 15252ft 255kts
23-Dec-19 10:11 42.975250 -123.004748 173 13531ft 246kts
23-Dec-19 10:12 42.908142 -122.992237 173 12045ft 241kts
23-Dec-19 10:13 42.840756 -122.979767 175 11970ft 253kts
23-Dec-19 10:14 42.766622 -122.992599 188 9734ft 267kts
23-Dec-19 10:15 42.694994 -123.006589 188 8010ft 246kts
23-Dec-19 10:16 42.628340 -123.007714 158 6862ft 232kts
23-Dec-19 10:17 42.570532 -122.975773 158 5129ft 209kts
23-Dec-19 10:18 42.519813 -122.949161 158 4093ft 180kts
23-Dec-19 10:19 42.477902 -122.927222 158 3247ft 152kts
23-Dec-19 10:20 42.441854 -122.908328 158 2485ft 115kts
23-Dec-19 10:21 42.416961 -122.895462 155 2015ft 89kts
23-Dec-19 10:22 42.393557 -122.883080 157 1514ft 91kts
23-Dec-19 10:23 42.377142 -122.874372 157 1306ft 23kts
23-Dec-19 10:24 42.375555 -122.875269 179 1308ft 8kts
23-Dec-19 10:25 42.372945 -122.876716 293 1309ft 14kts
23-Dec-19 10:26 42.371586 -122.878132 106 1309ft 6kts
23-Dec-19 10:27 42.371606 -122.877566 290 1309ft 0kts
23-Dec-19 10:28 42.371606 -122.877565 290 1309ft 0kts
23-Dec-19 10:29 42.371606 -122.877565 290 1309ft 0kts

Navigation Log

Ident Type
Flight plan parsing failed, navigation log unavailable